sensor_id;sensor_type;location;lat;lon;timestamp;pressure;altitude;pressure_sealevel;temperature;humidity
71642;BME280;60657;50.122;14.468;2023-03-03T00:00:14;98559.48941650448;;;4.192797741664762;56.087052719920656
71642;BME280;60657;50.122;14.468;2023-03-03T00:03:19;98565.89595790596;;;4.11802853437095;56.308308537422754
71642;BME280;60657;50.122;14.468;2023-03-03T00:06:24;98568.95837704994;;;4.037918669413294;56.449454489967195
71642;BME280;60657;50.122;14.468;2023-03-03T00:09:27;98563.11137133265;;;3.936446173800256;56.60013733119707
71642;BME280;60657;50.122;14.468;2023-03-03T00:12:30;98565.29367430198;;;3.8937209124895062;56.89959563591974
71642;BME280;60657;50.122;14.468;2023-03-03T00:15:33;98556.73508716798;;;3.789578088044557;57.315403982604714
71642;BME280;60657;50.122;14.468;2023-03-03T00:18:39;98554.5973224977;;;3.912413214312963;56.996871900511174
71642;BME280;60657;50.122;14.468;2023-03-03T00:21:44;98552.17252351924;;;3.915083543144881;56.96826123445487
71642;BME280;60657;50.122;14.468;2023-03-03T00:24:48;98554.5973224977;;;3.928435187304494;56.943465323872736
71642;BME280;60657;50.122;14.468;2023-03-03T00:27:51;98555.69233889555;;;3.7254901960784323;57.567177843900204
71642;BME280;60657;50.122;14.468;2023-03-03T00:30:54;98555.7755469605;;;3.8002594033722445;57.5385671778439
71642;BME280;60657;50.122;14.468;2023-03-03T00:34:00;98561.37295520115;;;3.6747539482719134;57.98489356832227
71642;BME280;60657;50.122;14.468;2023-03-03T00:37:27;98572.8170227952;;;3.6827649347676825;57.914320592050046
71642;BME280;60657;50.122;14.468;2023-03-03T00:40:34;98560.62128298034;;;3.7548638132295693;57.83230334935531
71642;BME280;60657;50.122;14.468;2023-03-03T00:43:38;98559.86931686311;;;3.8002594033722445;57.77126726176852
71642;BME280;60657;50.122;14.468;2023-03-03T00:46:42;98562.41713290932;;;3.8082703898680066;57.859006637674526
71642;BME280;60657;50.122;14.468;2023-03-03T00:49:44;98559.95244436829;;;3.8296330205233815;57.57289997711147
71642;BME280;60657;50.122;14.468;2023-03-03T00:52:51;98555.26977393938;;;3.8937209124895062;57.715953307392994
71642;BME280;60657;50.122;14.468;2023-03-03T00:56:01;98548.66919792278;;;3.8883802548256625;57.57289997711147
71642;BME280;60657;50.122;14.468;2023-03-03T00:59:04;98548.8316105567;;;3.9391165026321815;57.50614175631342
71642;BME280;60657;50.122;14.468;2023-03-03T01:02:06;98553.007761827;;;3.9471274891279435;57.56336308842603
71642;BME280;60657;50.122;14.468;2023-03-03T01:05:09;98546.20420988426;;;3.89906157015335;57.77889677271687
71642;BME280;60657;50.122;14.468;2023-03-03T01:08:15;98549.58580779895;;;3.8563363088426;57.74265659571221
71642;BME280;60657;50.122;14.468;2023-03-03T01:11:19;98540.47961008655;;;3.8670176241702876;57.756008239871825
71642;BME280;60657;50.122;14.468;2023-03-03T01:14:26;98538.48233720152;;;3.7869077592126317;58.18135347524223
71642;BME280;60657;50.122;14.468;2023-03-03T01:17:31;98531.9649544273;;;3.773556115053026;58.22903791866942
71642;BME280;60657;50.122;14.468;2023-03-03T01:20:34;98532.84100860922;;;3.789578088044557;58.16990920881972
71642;BME280;60657;50.122;14.468;2023-03-03T01:23:37;98523.38429343246;;;3.9257648584725686;57.782711528191044
71642;BME280;60657;50.122;14.468;2023-03-03T01:26:39;98535.54957222426;;;3.826962691691463;57.86472877088578
71642;BME280;60657;50.122;14.468;2023-03-03T01:29:42;98527.31945404144;;;3.8590066376745256;57.847562371252
71642;BME280;60657;50.122;14.468;2023-03-03T01:32:45;98537.21985945686;;;3.853665980010682;57.57671473258564
71642;BME280;60657;50.122;14.468;2023-03-03T01:35:47;98533.71696813821;;;3.877698939497975;57.5976958876936
71642;BME280;60657;50.122;14.468;2023-03-03T01:38:50;98532.71812002201;;;3.8162813763637757;57.715953307392994
71642;BME280;60657;50.122;14.468;2023-03-03T01:41:53;98525.52818729386;;;3.8349736781872252;57.818951705195694
71642;BME280;60657;50.122;14.468;2023-03-03T01:45:13;98531.25222618648;;;3.794918745708401;57.914320592050046
71642;BME280;60657;50.122;14.468;2023-03-03T01:48:20;98524.9114196096;;;3.5893034256504137;58.53612573434043
71642;BME280;60657;50.122;14.468;2023-03-03T01:51:30;98534.55615161272;;;3.58396276798657;58.593347066453035
71642;BME280;60657;50.122;14.468;2023-03-03T01:54:37;98538.60546780768;;;3.5572594796673513;58.81460288395513
71642;BME280;60657;50.122;14.468;2023-03-03T01:57:47;98530.3370743132;;;3.546578164339664;58.64675364309147
71642;BME280;60657;50.122;14.468;2023-03-03T02:00:58;98513.92811039907;;;3.5065232318608395;58.68680857557031
71642;BME280;60657;50.122;14.468;2023-03-03T02:04:05;98514.84729206309;;;3.482490272373539;58.82604715037766
71642;BME280;60657;50.122;14.468;2023-03-03T02:07:10;98521.40286870931;;;3.482490272373539;58.91950865949492
71642;BME280;60657;50.122;14.468;2023-03-03T02:10:17;98521.02064154214;;;3.370336461432821;59.17700465400168
71642;BME280;60657;50.122;14.468;2023-03-03T02:13:23;98519.7963698362;;;3.1567101548790717;59.48409246967269
71642;BME280;60657;50.122;14.468;2023-03-03T02:16:26;98514.87134508952;;;3.135347524223697;59.125505455100324
71642;BME280;60657;50.122;14.468;2023-03-03T02:19:31;98516.32369360307;;;3.159380483710997;58.223315785458155
71642;BME280;60657;50.122;14.468;2023-03-03T02:22:43;98513.64135445758;;;3.121995880064091;58.45601586938277
71642;BME280;60657;50.122;14.468;2023-03-03T02:26:08;98515.31215385863;;;3.028534370946822;58.631494621194776
71642;BME280;60657;50.122;14.468;2023-03-03T02:29:14;98512.1468648687;;;3.1860837720302158;58.373998626688035
71642;BME280;60657;50.122;14.468;2023-03-03T02:32:16;98517.37244813796;;;2.9671168078126158;59.38681620508126
71642;BME280;60657;50.122;14.468;2023-03-03T02:35:25;98510.47616176061;;;3.143358510719466;59.32196536202029
71642;BME280;60657;50.122;14.468;2023-03-03T02:38:34;98512.76168969476;;;3.055237659266041;59.40398260471504
71642;BME280;60657;50.122;14.468;2023-03-03T02:41:44;98517.5518094277;;;2.9724574654764595;59.37537193865873
71642;BME280;60657;50.122;14.468;2023-03-03T02:44:53;98520.53391342012;;;2.8683146410315103;59.203707942320904
71642;BME280;60657;50.122;14.468;2023-03-03T02:47:56;98522.53753121788;;;2.7214465552758043;59.594720378423744
71642;BME280;60657;50.122;14.468;2023-03-03T02:50:59;98522.44500259629;;;2.6867322804608236;60.063935301747165
71642;BME280;60657;50.122;14.468;2023-03-03T02:54:01;98522.49130798431;;;2.740138857099261;59.863660639353014
71642;BME280;60657;50.122;14.468;2023-03-03T02:57:06;98523.2806638402;;;2.7241168841077297;59.867475394827196
71642;BME280;60657;50.122;14.468;2023-03-03T03:00:11;98529.17664839135;;;2.718776226443886;59.77592126344702
71642;BME280;60657;50.122;14.468;2023-03-03T03:03:14;98536.60554456485;;;2.742809185931179;59.61379415579461
71642;BME280;60657;50.122;14.468;2023-03-03T03:06:17;98531.72985407258;;;2.8416113527122917;59.24567025253681
71642;BME280;60657;50.122;14.468;2023-03-03T03:09:21;98533.81897006172;;;2.6653696498054487;59.60997940032044
71642;BME280;60657;50.122;14.468;2023-03-03T03:12:26;98536.87993910116;;;2.5478751812008866;60.08491645685511
71642;BME280;60657;50.122;14.468;2023-03-03T03:15:29;98539.74681205738;;;2.462424658579387;60.2642099641413
71642;BME280;60657;50.122;14.468;2023-03-03T03:18:31;98538.26660719771;;;2.579919127183949;59.77401388570992
71642;BME280;60657;50.122;14.468;2023-03-03T03:21:34;98542.8009182606;;;2.4170290684367117;60.51216906996261
71642;BME280;60657;50.122;14.468;2023-03-03T03:24:37;98538.814582129;;;2.4811169604028365;60.069657434958415
71642;BME280;60657;50.122;14.468;2023-03-03T03:27:40;98525.68079025559;;;2.4731059739070744;59.947585259784844
71642;BME280;60657;50.122;14.468;2023-03-03T03:30:43;98530.59992448194;;;2.5024795910582114;59.94186312657358
71642;BME280;60657;50.122;14.468;2023-03-03T03:33:46;98527.16008624458;;;2.4650949874113053;60.00289921416038
71642;BME280;60657;50.122;14.468;2023-03-03T03:36:49;98531.93333210377;;;2.4010070954451805;60.28900587472343
71642;BME280;60657;50.122;14.468;2023-03-03T03:39:52;98523.91302943986;;;2.4090180819409497;60.329060807202254
71642;BME280;60657;50.122;14.468;2023-03-03T03:42:55;98523.22122627018;;;2.449073014419774;60.04867627985047
71642;BME280;60657;50.122;14.468;2023-03-03T03:45:58;98525.0014710005;;;2.32356755931945;60.84786755168993
71642;BME280;60657;50.122;14.468;2023-03-03T03:49:00;98515.80628666679;;;2.2674906538490873;60.99473563744564
71642;BME280;60657;50.122;14.468;2023-03-03T03:52:03;98504.15329295382;;;2.072556649118795;61.79392690928512
71642;BME280;60657;50.122;14.468;2023-03-03T03:55:06;98519.03733666224;;;1.8802929732204134;62.720912489509416
71642;BME280;60657;50.122;14.468;2023-03-03T03:58:11;98510.87926921717;;;1.9336995498588507;63.00320439459831
71642;BME280;60657;50.122;14.468;2023-03-03T04:01:15;98520.25002097487;;;1.7093919279774141;63.998855573357744
71642;BME280;60657;50.122;14.468;2023-03-03T04:04:18;98524.9053878142;;;1.6800183108262772;64.08659494926376
71642;BME280;60657;50.122;14.468;2023-03-03T04:07:20;98524.1729024582;;;1.7627985046158514;64.08087281605249
71642;BME280;60657;50.122;14.468;2023-03-03T04:10:23;98537.34549428307;;;1.7414358739604765;63.78141451132983
71642;BME280;60657;50.122;14.468;2023-03-03T04:13:26;98528.25034469017;;;1.7147325856412579;63.38467994201572
71642;BME280;60657;50.122;14.468;2023-03-03T04:16:29;98534.73239357136;;;1.7093919279774141;63.64789806973373
71642;BME280;60657;50.122;14.468;2023-03-03T04:19:33;98540.48226278379;;;1.7040512703135704;63.52010376134889
71642;BME280;60657;50.122;14.468;2023-03-03T04:22:36;98547.17324145284;;;1.7921721217669955;63.17486839093614
71642;BME280;60657;50.122;14.468;2023-03-03T04:25:39;98541.63082914766;;;1.8455786984054328;63.130998702983135
71642;BME280;60657;50.122;14.468;2023-03-03T04:28:42;98537.8613257288;;;1.9336995498588507;62.73426413366903
71642;BME280;60657;50.122;14.468;2023-03-03T04:31:45;98540.8462744308;;;1.8455786984054328;62.9154650186923
71642;BME280;60657;50.122;14.468;2023-03-03T04:34:47;98545.60479053207;;;1.7975127794308392;63.26642252231632
71642;BME280;60657;50.122;14.468;2023-03-03T04:37:50;98558.3578393769;;;1.642633707179371;63.92256046387426
71642;BME280;60657;50.122;14.468;2023-03-03T04:40:54;98549.00228831354;;;1.8055237659266012;63.73563744563974
71642;BME280;60657;50.122;14.468;2023-03-03T04:43:58;98554.64871071436;;;1.7708094911116206;63.918745708400095
71642;BME280;60657;50.122;14.468;2023-03-03T04:47:01;98549.47296461916;;;1.6880292973220392;64.34027618829633
71642;BME280;60657;50.122;14.468;2023-03-03T04:50:05;98551.1458374884;;;1.701380941481652;64.74654764629587
71642;BME280;60657;50.122;14.468;2023-03-03T04:53:09;98553.70762657162;;;1.7681391622796951;64.67215991454948
71642;BME280;60657;50.122;14.468;2023-03-03T04:56:12;98542.05027491447;;;1.7147325856412579;65.3035019455253
71642;BME280;60657;50.122;14.468;2023-03-03T04:59:15;98541.37085988063;;;1.730754558632789;65.88715953307393
71642;BME280;60657;50.122;14.468;2023-03-03T05:02:18;98539.12190826325;;;1.7841611352712263;65.55718318455787
71642;BME280;60657;50.122;14.468;2023-03-03T05:05:21;98533.94823002846;;;1.6960402838178084;65.69642175936522
71642;BME280;60657;50.122;14.468;2023-03-03T05:08:23;98536.4571473571;;;1.6987106126497267;65.68116273746853
71642;BME280;60657;50.122;14.468;2023-03-03T05:11:26;98536.40502485275;;;1.7147325856412579;65.40650034332799
71642;BME280;60657;50.122;14.468;2023-03-03T05:14:29;98542.41149607072;;;1.5438315403982585;66.2743572137026
71642;BME280;60657;50.122;14.468;2023-03-03T05:17:32;98541.7341897278;;;1.6666666666666643;66.06645304036012
71642;BME280;60657;50.122;14.468;2023-03-03T05:20:35;98536.44981960143;;;1.495765621423665;66.87518120088502
71642;BME280;60657;50.122;14.468;2023-03-03T05:23:38;98541.87577991806;;;1.4343480582894657;67.25093461509117
71642;BME280;60657;50.122;14.468;2023-03-03T05:26:40;98543.19475582676;;;1.5571831845578714;67.63241016250858
71642;BME280;60657;50.122;14.468;2023-03-03T05:29:43;98547.00274831262;;;1.4209964141298528;68.05775539787899
71642;BME280;60657;50.122;14.468;2023-03-03T05:32:46;98552.48062782142;;;1.407644769970247;68.28664072632944
71642;BME280;60657;50.122;14.468;2023-03-03T05:35:52;98558.73734407904;;;1.370260166323341;68.2637521934844
71642;BME280;60657;50.122;14.468;2023-03-03T05:38:55;98548.69700868844;;;1.2794689860379975;69.27275501640345
71642;BME280;60657;50.122;14.468;2023-03-03T05:41:58;98557.11876595671;;;1.3248645761806657;69.40817883573663
71642;BME280;60657;50.122;14.468;2023-03-03T05:45:01;98564.20871877935;;;1.2794689860379975;69.71335927367056
71642;BME280;60657;50.122;14.468;2023-03-03T05:48:06;98563.31647548245;;;1.1913481345845724;69.92126344701305
71642;BME280;60657;50.122;14.468;2023-03-03T05:51:09;98566.65971276003;;;1.1192492561226857;71.07331960021362
71642;BME280;60657;50.122;14.468;2023-03-03T05:54:12;98569.89408087013;;;1.0952162966353853;71.15533684290837
71642;BME280;60657;50.122;14.468;2023-03-03T05:57:15;98575.52537193497;;;1.063172350652323;71.60166323338674
71642;BME280;60657;50.122;14.468;2023-03-03T06:00:19;98584.56167708732;;;1.0364690623331043;71.73899443045701
71642;BME280;60657;50.122;14.468;2023-03-03T06:03:22;98593.31028943598;;;0.9670405127031358;72.37987335011826
71642;BME280;60657;50.122;14.468;2023-03-03T06:06:25;98606.90420903939;;;0.9002822919050857;72.95971618219272
71642;BME280;60657;50.122;14.468;2023-03-03T06:09:28;98602.23027396844;;;0.9510185397116047;73.02647440299077
71642;BME280;60657;50.122;14.468;2023-03-03T06:12:31;98606.24218832106;;;0.9082932784008548;73.27061875333791
71642;BME280;60657;50.122;14.468;2023-03-03T06:15:34;98621.08155100557;;;0.9616998550392921;73.63302052338445
71642;BME280;60657;50.122;14.468;2023-03-03T06:18:37;98624.48979979854;;;0.9884031433585108;73.65018692301824
71642;BME280;60657;50.122;14.468;2023-03-03T06:21:40;98634.83004789347;;;1.100556954299229;73.66735332265202
71642;BME280;60657;50.122;14.468;2023-03-03T06:24:43;98631.71129953756;;;1.1673151750972792;73.71122301060502
71642;BME280;60657;50.122;14.468;2023-03-03T06:27:46;98647.99823553773;;;1.1245899137865294;73.86762798504616
71642;BME280;60657;50.122;14.468;2023-03-03T06:30:51;98650.62693169511;;;1.1753261615930413;74.11749446860456
71642;BME280;60657;50.122;14.468;2023-03-03T06:33:54;98648.4604479417;;;1.290150301365685;73.99542229343099
71642;BME280;60657;50.122;14.468;2023-03-03T06:36:57;98668.33189510589;;;1.3061722743572162;73.90005340657663
71642;BME280;60657;50.122;14.468;2023-03-03T06:40:00;98674.68641670844;;;1.2794689860379975;74.46463721675441
71642;BME280;60657;50.122;14.468;2023-03-03T06:43:03;98675.46607594621;;;1.2714579995422284;74.45319295033188
71642;BME280;60657;50.122;14.468;2023-03-03T06:46:06;98661.51552862837;;;1.2420843823910914;75.4373998626688
71642;BME280;60657;50.122;14.468;2023-03-03T06:49:09;98679.10627446187;;;1.4316777294575402;75.51941710536354
71642;BME280;60657;50.122;14.468;2023-03-03T06:52:13;98674.08016136629;;;1.3168535896849036;76.12787060349432
71642;BME280;60657;50.122;14.468;2023-03-03T06:55:21;98671.56716052431;;;1.378271152819103;76.33196002136263
71642;BME280;60657;50.122;14.468;2023-03-03T06:58:24;98666.71421131681;;;1.3515678644998843;76.81261921110857
71642;BME280;60657;50.122;14.468;2023-03-03T07:01:32;98667.6666968722;;;1.2928206301976033;77.28374151216907
71642;BME280;60657;50.122;14.468;2023-03-03T07:04:38;98672.14031051735;;;1.5278095674067274;76.9861905851835
71642;BME280;60657;50.122;14.468;2023-03-03T07:07:41;98670.97414967249;;;1.685358968490121;76.99954222934309
71642;BME280;60657;50.122;14.468;2023-03-03T07:10:45;98669.18657779515;;;1.5598535133897897;77.11589227130541
71642;BME280;60657;50.122;14.468;2023-03-03T07:13:49;98673.81548513495;;;1.4423590447852277;77.17311360341802
71642;BME280;60657;50.122;14.468;2023-03-03T07:16:55;98672.48028353133;;;1.5438315403982585;77.2341496910048
71642;BME280;60657;50.122;14.468;2023-03-03T07:20:04;98674.9364769806;;;1.5651941710536335;77.5145342183566
71642;BME280;60657;50.122;14.468;2023-03-03T07:23:20;98682.80372667105;;;1.987106126497288;76.53223468375677
71642;BME280;60657;50.122;14.468;2023-03-03T07:26:27;98668.34438971781;;;2.251468680857556;75.44693675135424
71642;BME280;60657;50.122;14.468;2023-03-03T07:29:32;98677.3951185969;;;2.235446707866025;75.35538261997407
71642;BME280;60657;50.122;14.468;2023-03-03T07:32:36;98684.71977688593;;;2.4891279468986056;74.47035934996566
71642;BME280;60657;50.122;14.468;2023-03-03T07:35:42;98684.59919069704;;;2.7161058976119605;73.77225909819181
71642;BME280;60657;50.122;14.468;2023-03-03T07:38:47;98693.02896781388;;;3.1273365377279347;72.98641947051193
71642;BME280;60657;50.122;14.468;2023-03-03T07:41:59;98695.01940120659;;;3.3890287632562774;71.54253452353704
71642;BME280;60657;50.122;14.468;2023-03-03T07:45:20;98677.112801548;;;4.080643930724044;69.45014114595254
71642;BME280;60657;50.122;14.468;2023-03-03T07:48:30;98668.80739929448;;;4.302281223773555;68.7940032043946
71642;BME280;60657;50.122;14.468;2023-03-03T07:51:38;98668.66779827094;;;4.288929579613949;67.19562066071565
71642;BME280;60657;50.122;14.468;2023-03-03T07:54:42;98685.65309522713;;;4.361028458075836;67.48744945448996
71642;BME280;60657;50.122;14.468;2023-03-03T07:57:47;98679.17486174662;;;4.694819562066073;66.41741054398413
71642;BME280;60657;50.122;14.468;2023-03-03T08:01:28;98682.82873316847;;;4.817654688334478;65.90241855497062
71642;BME280;60657;50.122;14.468;2023-03-03T08:04:39;98682.98196902563;;;4.940489814602884;66.01876859693294
71642;BME280;60657;50.122;14.468;2023-03-03T08:07:44;98677.1890766114;;;5.276951247425039;64.73701075761043
71642;BME280;60657;50.122;14.468;2023-03-03T08:10:47;98669.40404466151;;;5.413138017853058;64.31357289997712
71642;BME280;60657;50.122;14.468;2023-03-03T08:13:52;98672.82912761482;;;5.047302967879759;65.21766994735637
71642;BME280;60657;50.122;14.468;2023-03-03T08:16:55;98677.73229692137;;;5.095368886854352;65.5667200732433
71642;BME280;60657;50.122;14.468;2023-03-03T08:19:59;98675.912876442;;;5.009918364232853;65.64301518272678
71642;BME280;60657;50.122;14.468;2023-03-03T08:23:02;98675.42199352234;;;4.828336003662166;66.28007934691387
71642;BME280;60657;50.122;14.468;2023-03-03T08:26:05;98685.42658317836;;;4.6200503547722604;66.75692378118562
71642;BME280;60657;50.122;14.468;2023-03-03T08:29:10;98685.06307081752;;;4.377050431067367;67.57328145265889
71642;BME280;60657;50.122;14.468;2023-03-03T08:32:13;98672.56374323987;;;4.355687800411992;67.73731593804837
71642;BME280;60657;50.122;14.468;2023-03-03T08:35:15;98686.26255341843;;;4.609369039444573;67.3196002136263
71642;BME280;60657;50.122;14.468;2023-03-03T08:38:19;98700.78548728586;;;4.5693141069657415;67.29098954757
71642;BME280;60657;50.122;14.468;2023-03-03T08:41:23;98699.619107512;;;4.355687800411992;68.07492179751279
71642;BME280;60657;50.122;14.468;2023-03-03T08:44:26;98713.3740800639;;;4.259555962462805;68.3514915693904
71642;BME280;60657;50.122;14.468;2023-03-03T08:47:29;98715.6703807175;;;4.20347905699245;69.0743877317464
71642;BME280;60657;50.122;14.468;2023-03-03T08:50:32;98707.77274207417;;;4.40909437705043;68.65094987411307
71642;BME280;60657;50.122;14.468;2023-03-03T08:53:35;98712.74863109295;;;4.288929579613949;69.16784924086366
71642;BME280;60657;50.122;14.468;2023-03-03T08:56:38;98711.65577942318;;;4.574654764629585;68.0863660639353
71642;BME280;60657;50.122;14.468;2023-03-03T08:59:41;98703.7586031553;;;4.320973525597012;68.57084000915542
71642;BME280;60657;50.122;14.468;2023-03-03T09:02:44;98708.02290826652;;;4.491874570840011;68.20653086137179
71642;BME280;60657;50.122;14.468;2023-03-03T09:05:47;98705.72051372343;;;4.507896543831542;68.19317921721218
71642;BME280;60657;50.122;14.468;2023-03-03T09:08:50;98696.43056757438;;;5.084687571526665;66.89044022278172
71642;BME280;60657;50.122;14.468;2023-03-03T09:11:54;98698.8849168131;;;5.722896162355994;64.85145342183566
71642;BME280;60657;50.122;14.468;2023-03-03T09:15:05;98693.09346715017;;;6.158159761959261;63.08331425955596
71642;BME280;60657;50.122;14.468;2023-03-03T09:18:18;98690.77802946599;;;6.22758831158923;62.62935835812924
71642;BME280;60657;50.122;14.468;2023-03-03T09:21:24;98692.5732955389;;;6.211566338597699;62.46723125047684
71642;BME280;60657;50.122;14.468;2023-03-03T09:24:34;98694.1812045351;;;6.158159761959261;61.805371175707634
71642;BME280;60657;50.122;14.468;2023-03-03T09:27:38;98700.89243441686;;;5.7202258335240685;63.28931105516136
71642;BME280;60657;50.122;14.468;2023-03-03T09:30:44;98689.55957866639;;;5.877775234607462;63.062333104448
71642;BME280;60657;50.122;14.468;2023-03-03T09:33:51;98698.54253646592;;;6.219577325093461;62.02471961547265
71642;BME280;60657;50.122;14.468;2023-03-03T09:36:55;98698.35688400957;;;6.14213778896773;62.245975432974745
71642;BME280;60657;50.122;14.468;2023-03-03T09:39:58;98687.74805981759;;;6.267643244068054;62.085755703059434
71642;BME280;60657;50.122;14.468;2023-03-03T09:43:02;98696.84160314099;;;6.262302586404211;61.83779659723811
71642;BME280;60657;50.122;14.468;2023-03-03T09:46:11;98695.1405686173;;;6.272983901731898;61.59746700236515
71642;BME280;60657;50.122;14.468;2023-03-03T09:49:30;98695.47084163263;;;5.96589608606088;62.43289845120928
71642;BME280;60657;50.122;14.468;2023-03-03T09:52:36;98694.84814327215;;;6.593423361562522;61.563134203097576
71642;BME280;60657;50.122;14.468;2023-03-03T09:55:53;98692.24528998522;;;6.911192492561227;60.17074845502404
71642;BME280;60657;50.122;14.468;2023-03-03T09:59:15;98699.11132137864;;;7.058060578316933;59.88273441672389
71642;BME280;60657;50.122;14.468;2023-03-03T10:02:33;98702.93966669412;;;7.407873655298694;59.22278171969177
71642;BME280;60657;50.122;14.468;2023-03-03T10:05:50;98706.75516298559;;;7.231631952391851;59.81979095140001
71642;BME280;60657;50.122;14.468;2023-03-03T10:09:15;98708.57952479852;;;7.247653925383382;59.537499046311126
71642;BME280;60657;50.122;14.468;2023-03-03T10:12:41;98702.02981836525;;;7.301060502021819;59.35629816128787
71642;BME280;60657;50.122;14.468;2023-03-03T10:15:58;98693.31595052304;;;7.688258182650493;58.60097657740138
71642;BME280;60657;50.122;14.468;2023-03-03T10:19:26;98690.98266945936;;;8.246356908522166;56.71267261768521
71642;BME280;60657;50.122;14.468;2023-03-03T10:22:41;98689.11149465268;;;7.984664682993817;56.49141680018311
71642;BME280;60657;50.122;14.468;2023-03-03T10:25:58;98684.85462201976;;;8.668268863965821;55.29739833676661
71642;BME280;60657;50.122;14.468;2023-03-03T10:29:20;98679.66854005368;;;9.314488441290912;53.81918059052415
71642;BME280;60657;50.122;14.468;2023-03-03T10:32:39;98684.26408085517;;;9.86991683833066;52.73769741359579
71642;BME280;60657;50.122;14.468;2023-03-03T10:35:56;98671.32921804288;;;10.321202410925459;50.631952391851684
71642;BME280;60657;50.122;14.468;2023-03-03T10:39:20;98676.10365802611;;;9.787136644541086;52.100633249408716
71642;BME280;60657;50.122;14.468;2023-03-03T10:43:06;98661.38466857994;;;10.329213397421228;50.687266346227204
71642;BME280;60657;50.122;14.468;2023-03-03T10:46:28;98677.86394766618;;;10.016784924086366;51.06874189364462
71642;BME280;60657;50.122;14.468;2023-03-03T10:49:50;98670.53478794447;;;10.374608987563896;49.59243152513924
71642;BME280;60657;50.122;14.468;2023-03-03T10:53:12;98681.31264776333;;;10.299839780270084;50.23521782253758
71642;BME280;60657;50.122;14.468;2023-03-03T10:56:27;98692.95431472825;;;9.982070649271378;50.166552224002444
71642;BME280;60657;50.122;14.468;2023-03-03T10:59:46;98679.75525314122;;;10.411993591210802;49.25673304341192
71642;BME280;60657;50.122;14.468;2023-03-03T11:03:09;98675.67683550212;;;10.767147325856413;48.663538567177845
71642;BME280;60657;50.122;14.468;2023-03-03T11:06:38;98677.34687932192;;;10.518806744487676;48.74937056534676
71642;BME280;60657;50.122;14.468;2023-03-03T11:09:55;98669.90992794975;;;10.660334172579539;47.63736934462501
71642;BME280;60657;50.122;14.468;2023-03-03T11:13:11;98674.88973386289;;;10.665674830243383;46.3422598611429
71642;BME280;60657;50.122;14.468;2023-03-03T11:16:27;98667.50887531217;;;11.242465857938505;46.616922255283434